createdAt,value
2018-08-19T00:01:07.634Z,2.00
2018-08-19T00:03:35.223Z,1.70
2018-08-19T00:06:03.054Z,2.00
2018-08-19T00:08:30.722Z,1.63
2018-08-19T00:11:01.761Z,1.90
2018-08-19T00:13:29.411Z,1.90
2018-08-19T00:15:57.090Z,1.37
2018-08-19T00:18:24.630Z,1.80
2018-08-19T00:20:52.152Z,2.53
2018-08-19T00:23:19.889Z,1.87
2018-08-19T00:25:47.462Z,1.53
2018-08-19T00:28:17.072Z,1.70
2018-08-19T00:30:44.779Z,2.03
2018-08-19T00:33:12.575Z,2.40
2018-08-19T00:35:40.107Z,2.50
2018-08-19T00:38:10.546Z,1.90
2018-08-19T00:40:38.603Z,2.07
2018-08-19T00:43:06.168Z,2.30
2018-08-19T00:45:33.800Z,1.90
2018-08-19T00:48:01.366Z,2.17
2018-08-19T00:50:28.976Z,1.87
2018-08-19T00:52:56.715Z,1.70
2018-08-19T00:55:24.745Z,1.50
2018-08-19T00:57:56.603Z,1.20
2018-08-19T01:00:24.488Z,0.97
2018-08-19T01:02:52.009Z,1.30
2018-08-19T01:05:19.557Z,1.40
2018-08-19T01:07:47.373Z,1.00
2018-08-19T01:10:14.910Z,1.20
2018-08-19T01:12:42.476Z,0.80
2018-08-19T01:15:10.850Z,1.10
2018-08-19T01:17:43.180Z,0.80
2018-08-19T01:20:12.542Z,0.90
2018-08-19T01:22:41.346Z,0.90
2018-08-19T01:25:10.295Z,0.80
2018-08-19T01:27:38.898Z,0.90
2018-08-19T01:30:11.476Z,0.90
2018-08-19T01:32:39.226Z,1.20
2018-08-19T01:35:06.721Z,0.90
2018-08-19T01:37:35.983Z,0.80
2018-08-19T01:40:05.050Z,1.00
2018-08-19T01:42:34.169Z,0.90
2018-08-19T01:45:01.589Z,0.80
2018-08-19T01:47:29.352Z,0.90
2018-08-19T01:49:56.863Z,0.90
2018-08-19T01:52:24.401Z,0.87
2018-08-19T01:54:52.003Z,0.70
2018-08-19T01:57:19.539Z,0.70
2018-08-19T01:59:47.023Z,0.90
2018-08-19T02:02:14.792Z,0.70
2018-08-19T02:04:47.959Z,0.50
2018-08-19T02:07:15.723Z,0.60
2018-08-19T02:09:57.842Z,0.43
2018-08-19T02:12:30.519Z,0.53
2018-08-19T02:14:58.002Z,0.50
2018-08-19T02:17:25.553Z,0.40
2018-08-19T02:19:53.121Z,0.40
2018-08-19T02:22:20.626Z,0.30
2018-08-19T02:24:50.744Z,0.40
2018-08-19T02:27:18.432Z,0.40
2018-08-19T02:29:45.860Z,0.40
2018-08-19T02:32:13.321Z,0.40
2018-08-19T02:34:43.811Z,0.40
2018-08-19T02:37:13.407Z,0.40
2018-08-19T02:39:42.907Z,0.27
2018-08-19T02:42:23.882Z,0.20
2018-08-19T02:44:53.433Z,0.30
2018-08-19T02:47:20.999Z,0.33
2018-08-19T02:49:48.538Z,0.30
2018-08-19T02:52:21.506Z,0.23
2018-08-19T02:54:49.146Z,0.23
2018-08-19T02:57:16.639Z,0.30
2018-08-19T02:59:44.126Z,0.37
2018-08-19T03:02:23.770Z,0.20
2018-08-19T03:04:52.146Z,0.20
2018-08-19T03:07:20.057Z,0.30
2018-08-19T03:09:50.764Z,0.20
2018-08-19T03:12:18.418Z,0.47
2018-08-19T03:14:45.880Z,0.60
2018-08-19T03:17:13.667Z,0.37
2018-08-19T03:19:41.164Z,0.40
2018-08-19T03:22:09.299Z,0.40
2018-08-19T03:24:36.892Z,0.30
2018-08-19T03:27:04.386Z,0.27
2018-08-19T03:29:31.913Z,0.27
2018-08-19T03:32:00.731Z,0.30
2018-08-19T03:34:29.241Z,0.30
2018-08-19T03:36:58.093Z,0.30
2018-08-19T03:39:25.898Z,0.30
2018-08-19T03:41:53.417Z,0.30
2018-08-19T03:44:20.994Z,0.20
2018-08-19T03:46:48.714Z,0.20
2018-08-19T03:49:16.570Z,0.20
2018-08-19T03:51:44.068Z,0.30
2018-08-19T03:54:11.782Z,0.40
2018-08-19T03:56:39.221Z,0.30
2018-08-19T03:59:06.954Z,0.20
2018-08-19T04:01:42.346Z,0.20
2018-08-19T04:04:10.421Z,0.30
2018-08-19T04:06:39.741Z,0.10
2018-08-19T04:09:07.358Z,0.30
2018-08-19T04:11:35.005Z,0.10
2018-08-19T04:14:03.033Z,0.20
2018-08-19T04:16:30.769Z,0.20
2018-08-19T04:19:06.675Z,0.10
2018-08-19T04:21:34.291Z,0.50
2018-08-19T04:24:01.760Z,0.17
2018-08-19T04:26:29.861Z,0.40
2018-08-19T04:28:57.513Z,0.30
2018-08-19T04:31:24.940Z,0.20
2018-08-19T04:33:53.015Z,0.30
2018-08-19T04:36:21.536Z,0.30
2018-08-19T04:38:49.149Z,0.47
2018-08-19T04:41:16.805Z,0.30
2018-08-19T04:43:44.889Z,0.40
2018-08-19T04:46:12.390Z,0.30
2018-08-19T04:48:39.927Z,0.40
2018-08-19T04:51:07.709Z,0.30
2018-08-19T04:53:35.301Z,0.40
2018-08-19T04:56:02.823Z,0.37
2018-08-19T04:58:30.443Z,0.50
2018-08-19T05:00:58.027Z,0.50
2018-08-19T05:03:25.523Z,0.40
2018-08-19T05:05:53.279Z,0.50
2018-08-19T05:08:20.980Z,0.50
2018-08-19T05:10:48.448Z,0.30
2018-08-19T05:13:16.141Z,0.60
2018-08-19T05:15:44.052Z,0.70
2018-08-19T05:18:11.534Z,0.30
2018-08-19T05:20:39.237Z,0.40
2018-08-19T05:23:07.292Z,0.30
2018-08-19T05:26:10.390Z,0.47
2018-08-19T05:28:37.966Z,0.40
2018-08-19T05:31:05.516Z,0.30
2018-08-19T05:33:33.002Z,0.27
2018-08-19T05:36:00.772Z,0.30
2018-08-19T05:38:30.006Z,0.20
2018-08-19T05:41:00.503Z,0.20
2018-08-19T05:43:28.678Z,0.20
2018-08-19T05:45:58.378Z,0.20
2018-08-19T05:48:26.013Z,0.20
2018-08-19T05:50:53.863Z,0.20
2018-08-19T05:53:21.802Z,0.20
2018-08-19T05:55:49.460Z,0.20
2018-08-19T05:58:17.198Z,0.23
2018-08-19T06:00:49.306Z,0.27
2018-08-19T06:03:16.791Z,0.17
2018-08-19T06:05:44.408Z,0.10
2018-08-19T06:08:14.142Z,0.20
2018-08-19T06:10:41.769Z,0.20
2018-08-19T06:13:10.296Z,0.17
2018-08-19T06:15:37.839Z,0.20
2018-08-19T06:18:05.690Z,0.10
2018-08-19T06:20:33.445Z,0.13
2018-08-19T06:23:01.086Z,0.10
2018-08-19T06:25:28.684Z,0.20
2018-08-19T06:27:57.403Z,0.10
2018-08-19T06:30:25.003Z,0.20
2018-08-19T06:32:52.674Z,0.13
2018-08-19T06:35:20.399Z,0.10
2018-08-19T06:37:47.911Z,0.10
2018-08-19T06:40:17.965Z,0.10
2018-08-19T06:42:45.629Z,0.10
2018-08-19T06:45:13.648Z,0.10
2018-08-19T06:47:41.256Z,0.20
2018-08-19T06:50:21.546Z,0.17
2018-08-19T06:52:49.403Z,0.40
2018-08-19T06:55:17.335Z,0.13
2018-08-19T06:57:44.860Z,0.10
2018-08-19T07:00:31.267Z,0.00
2018-08-19T07:02:59.777Z,0.03
2018-08-19T07:05:27.668Z,0.10
2018-08-19T07:07:55.169Z,0.10
2018-08-19T07:10:29.591Z,0.10
2018-08-19T07:13:02.761Z,0.10
2018-08-19T07:15:30.292Z,0.10
2018-08-19T07:17:57.833Z,0.10
2018-08-19T07:20:26.915Z,0.20
2018-08-19T07:22:54.878Z,0.10
2018-08-19T07:25:22.393Z,0.10
2018-08-19T07:27:49.961Z,0.20
2018-08-19T07:30:17.365Z,0.10
2018-08-19T07:32:44.831Z,0.10
2018-08-19T07:35:12.476Z,0.20
2018-08-19T07:37:39.986Z,0.30
2018-08-19T07:40:07.428Z,0.10
2018-08-19T07:42:35.199Z,0.20
2018-08-19T07:45:02.772Z,0.10
2018-08-19T07:47:30.230Z,0.10
2018-08-19T07:49:57.912Z,0.13
2018-08-19T07:52:25.420Z,0.10
2018-08-19T07:54:52.896Z,0.10
2018-08-19T07:57:26.996Z,0.10
2018-08-19T07:59:54.556Z,0.10
2018-08-19T08:02:25.015Z,0.10
2018-08-19T08:04:52.786Z,0.30
2018-08-19T08:07:20.275Z,0.20
2018-08-19T08:09:47.790Z,0.10
2018-08-19T08:12:15.678Z,0.20
2018-08-19T08:14:49.260Z,0.10
2018-08-19T08:17:16.962Z,0.07
2018-08-19T08:19:52.042Z,0.10
2018-08-19T08:22:19.915Z,0.17
2018-08-19T08:24:47.382Z,0.20
2018-08-19T08:27:14.835Z,0.07
2018-08-19T08:29:42.441Z,0.20
2018-08-19T08:32:10.073Z,0.20
2018-08-19T08:34:37.621Z,0.20
2018-08-19T08:37:05.984Z,0.20
2018-08-19T08:39:34.707Z,0.27
2018-08-19T08:42:02.226Z,0.20
2018-08-19T08:44:30.155Z,0.20
2018-08-19T08:47:00.709Z,0.10
2018-08-19T08:49:35.636Z,0.10
2018-08-19T08:52:09.826Z,0.20
2018-08-19T08:54:37.520Z,0.20
2018-08-19T08:57:05.106Z,0.20
2018-08-19T08:59:32.650Z,0.20
2018-08-19T09:02:00.406Z,0.73
2018-08-19T09:04:27.938Z,0.30
2018-08-19T09:06:55.346Z,0.30
2018-08-19T09:09:22.974Z,0.20
2018-08-19T09:11:50.495Z,0.20
2018-08-19T09:14:17.985Z,0.10
2018-08-19T09:16:45.734Z,0.20
2018-08-19T09:19:13.354Z,0.10
2018-08-19T09:21:40.887Z,0.30
2018-08-19T09:24:08.682Z,0.40
2018-08-19T09:26:36.249Z,0.37
2018-08-19T09:29:03.753Z,0.10
2018-08-19T09:31:31.337Z,0.20
2018-08-19T09:33:58.750Z,0.40
2018-08-19T09:36:26.414Z,0.30
2018-08-19T09:38:55.020Z,0.10
2018-08-19T09:41:24.703Z,0.10
2018-08-19T09:43:52.245Z,0.13
2018-08-19T09:46:19.898Z,0.10
2018-08-19T09:48:47.412Z,0.23
2018-08-19T09:51:14.852Z,0.30
2018-08-19T09:53:42.457Z,0.10
2018-08-19T09:56:10.704Z,0.50
2018-08-19T09:58:38.474Z,0.10
2018-08-19T10:01:11.771Z,0.20
2018-08-19T10:03:39.713Z,0.20
2018-08-19T10:06:07.288Z,0.20
2018-08-19T10:08:34.724Z,0.20
2018-08-19T10:11:02.524Z,0.20
2018-08-19T10:13:30.402Z,0.10
2018-08-19T10:15:57.948Z,0.20
2018-08-19T10:18:25.946Z,0.10
2018-08-19T10:20:53.352Z,0.10
2018-08-19T10:23:23.118Z,0.20
2018-08-19T10:25:51.250Z,0.20
2018-08-19T10:28:18.675Z,0.10
2018-08-19T10:30:58.025Z,0.40
2018-08-19T10:33:25.738Z,0.20
2018-08-19T10:35:54.210Z,0.30
2018-08-19T10:38:21.666Z,0.20
2018-08-19T10:40:54.823Z,0.20
2018-08-19T10:43:22.606Z,1.03
2018-08-19T10:45:50.087Z,0.20
2018-08-19T10:48:17.589Z,0.27
2018-08-19T10:50:45.264Z,0.30
2018-08-19T10:53:18.350Z,0.10
2018-08-19T10:55:46.679Z,0.10
2018-08-19T10:58:14.273Z,0.13
2018-08-19T11:00:41.772Z,0.10
2018-08-19T11:03:24.610Z,0.30
2018-08-19T11:05:53.837Z,0.20
2018-08-19T11:08:21.326Z,0.10
2018-08-19T11:10:48.866Z,0.17
2018-08-19T11:13:22.342Z,0.10
2018-08-19T11:15:56.646Z,0.10
2018-08-19T11:18:30.107Z,0.20
2018-08-19T11:22:01.327Z,0.07
2018-08-19T11:24:29.001Z,0.20
2018-08-19T11:27:01.107Z,0.20
2018-08-19T11:29:28.849Z,0.10
2018-08-19T11:31:56.665Z,0.37
2018-08-19T11:34:24.150Z,0.10
2018-08-19T11:36:52.862Z,0.10
2018-08-19T11:39:22.177Z,0.10
2018-08-19T11:41:49.712Z,0.00
2018-08-19T11:44:17.497Z,0.10
2018-08-19T11:46:45.142Z,0.10
2018-08-19T11:49:16.829Z,0.13
2018-08-19T11:51:49.955Z,0.20
2018-08-19T11:54:18.289Z,0.00
2018-08-19T11:56:55.578Z,0.10
2018-08-19T11:59:28.273Z,0.10
2018-08-19T12:01:55.853Z,0.13
2018-08-19T12:04:23.351Z,0.10
2018-08-19T12:06:50.961Z,0.17
2018-08-19T12:09:18.449Z,0.00
2018-08-19T12:11:45.951Z,0.20
2018-08-19T12:14:14.561Z,0.17
2018-08-19T12:16:49.615Z,0.10
2018-08-19T12:19:22.767Z,0.80
2018-08-19T12:21:54.578Z,0.10
2018-08-19T12:24:25.403Z,0.20
2018-08-19T12:26:55.431Z,0.20
2018-08-19T12:29:24.158Z,0.23
2018-08-19T12:31:56.958Z,0.30
2018-08-19T12:34:24.826Z,0.20
2018-08-19T12:36:52.360Z,0.20
2018-08-19T12:39:19.911Z,0.20
2018-08-19T12:41:51.877Z,0.20
2018-08-19T12:44:19.422Z,0.10
2018-08-19T12:47:02.072Z,0.10
2018-08-19T12:49:32.431Z,0.10
2018-08-19T12:52:00.154Z,0.20
2018-08-19T12:54:27.613Z,0.20
2018-08-19T12:56:55.001Z,0.20
2018-08-19T12:59:22.793Z,0.30
2018-08-19T13:01:50.269Z,0.20
2018-08-19T13:04:17.790Z,0.20
2018-08-19T13:06:56.590Z,0.20
2018-08-19T13:09:28.515Z,0.10
2018-08-19T13:12:02.328Z,0.10
2018-08-19T13:14:30.433Z,0.10
2018-08-19T13:16:57.945Z,0.20
2018-08-19T13:19:25.669Z,0.27
2018-08-19T13:21:53.136Z,0.10
2018-08-19T13:24:25.267Z,0.10
2018-08-19T13:26:52.952Z,0.30
2018-08-19T13:29:20.680Z,0.10
2018-08-19T13:31:48.331Z,0.10
2018-08-19T13:34:16.006Z,0.20
2018-08-19T13:36:43.706Z,0.20
2018-08-19T13:39:11.161Z,0.20
2018-08-19T13:41:38.819Z,0.10
2018-08-19T13:44:06.399Z,0.20
2018-08-19T13:46:33.798Z,0.30
2018-08-19T13:49:01.375Z,0.23
2018-08-19T13:51:28.789Z,0.20
2018-08-19T13:53:55.713Z,0.30
2018-08-19T13:56:23.382Z,0.23
2018-08-19T13:58:50.890Z,0.10
2018-08-19T14:01:49.361Z,0.20
2018-08-19T14:04:16.868Z,0.20
2018-08-19T14:06:44.960Z,0.30
2018-08-19T14:09:12.882Z,0.20
2018-08-19T14:11:40.778Z,0.50
2018-08-19T14:14:08.925Z,0.20
2018-08-19T14:16:36.657Z,0.20
2018-08-19T14:19:04.803Z,0.20
2018-08-19T14:21:32.365Z,0.33
2018-08-19T14:24:01.067Z,0.40
2018-08-19T14:26:28.581Z,0.30
2018-08-19T14:28:56.072Z,0.30
2018-08-19T14:31:23.738Z,0.20
2018-08-19T14:33:51.388Z,0.23
2018-08-19T14:36:18.875Z,0.40
2018-08-19T14:38:46.518Z,0.60
2018-08-19T14:41:14.424Z,0.30
2018-08-19T14:43:55.976Z,0.30
2018-08-19T14:46:24.153Z,0.30
2018-08-19T14:48:56.381Z,0.30
2018-08-19T14:51:24.198Z,0.40
2018-08-19T14:53:51.895Z,0.50
2018-08-19T14:56:19.454Z,0.33
2018-08-19T14:58:47.190Z,0.37
2018-08-19T15:01:14.699Z,0.30
2018-08-19T15:03:47.612Z,0.30
2018-08-19T15:06:15.222Z,0.40
2018-08-19T15:08:43.574Z,0.30
2018-08-19T15:11:11.202Z,0.43
2018-08-19T15:13:38.780Z,0.37
2018-08-19T15:16:06.334Z,0.40
2018-08-19T15:18:33.757Z,0.50
2018-08-19T15:21:01.367Z,0.30
2018-08-19T15:23:28.873Z,0.30
2018-08-19T15:25:56.425Z,0.40
2018-08-19T15:28:24.044Z,0.30
2018-08-19T15:30:51.534Z,0.30
2018-08-19T15:33:20.432Z,0.30
2018-08-19T15:35:48.474Z,0.23
2018-08-19T15:38:16.012Z,0.20
2018-08-19T15:40:47.751Z,0.20
2018-08-19T15:43:15.474Z,0.30
2018-08-19T15:45:43.744Z,0.20
2018-08-19T15:48:11.303Z,0.27
2018-08-19T15:50:39.081Z,0.30
2018-08-19T15:53:07.179Z,0.20
2018-08-19T15:55:34.894Z,0.30
2018-08-19T15:58:03.382Z,0.43
2018-08-19T16:00:37.084Z,0.30
2018-08-19T16:03:04.719Z,0.30
2018-08-19T16:05:32.290Z,0.50
2018-08-19T16:07:59.901Z,0.20
2018-08-19T16:10:27.624Z,0.27
2018-08-19T16:12:55.198Z,0.20
2018-08-19T16:15:26.731Z,0.33
2018-08-19T16:17:55.375Z,0.13
2018-08-19T16:20:23.104Z,0.10
2018-08-19T16:22:50.879Z,0.30
2018-08-19T16:25:19.219Z,0.40
2018-08-19T16:27:46.747Z,0.30
2018-08-19T16:30:14.439Z,0.20
2018-08-19T16:32:42.170Z,0.23
2018-08-19T16:35:09.693Z,0.30
2018-08-19T16:37:37.425Z,0.30
2018-08-19T16:40:07.910Z,0.33
2018-08-19T16:42:35.358Z,0.33
2018-08-19T16:45:02.938Z,0.53
2018-08-19T16:47:30.558Z,0.30
2018-08-19T16:49:58.026Z,0.20
2018-08-19T16:52:25.528Z,0.30
2018-08-19T16:54:53.039Z,0.20
2018-08-19T16:57:20.621Z,0.20
2018-08-19T16:59:48.027Z,0.30
2018-08-19T17:02:15.677Z,0.30
2018-08-19T17:04:43.116Z,0.17
2018-08-19T17:07:11.188Z,0.20
2018-08-19T17:09:38.938Z,0.30
2018-08-19T17:12:06.507Z,0.10
2018-08-19T17:14:34.920Z,0.30
2018-08-19T17:17:02.590Z,0.57
2018-08-19T17:19:30.030Z,0.40
2018-08-19T17:21:57.642Z,0.30
2018-08-19T17:24:25.286Z,0.37
2018-08-19T17:26:58.288Z,0.20
2018-08-19T17:29:25.841Z,0.30
2018-08-19T17:31:53.444Z,0.20
2018-08-19T17:34:21.446Z,0.27
2018-08-19T17:36:48.949Z,0.40
2018-08-19T17:39:19.575Z,0.20
2018-08-19T17:41:47.255Z,0.37
2018-08-19T17:44:14.722Z,0.20
2018-08-19T17:46:42.323Z,0.40
2018-08-19T17:49:29.555Z,0.30
2018-08-19T17:51:58.224Z,0.33
2018-08-19T17:54:26.713Z,0.40
2018-08-19T17:56:54.756Z,0.30
2018-08-19T17:59:22.568Z,0.37
2018-08-19T18:01:49.967Z,0.20
2018-08-19T18:04:17.369Z,0.20
2018-08-19T18:06:45.022Z,0.30
2018-08-19T18:09:13.683Z,0.30
2018-08-19T18:11:42.248Z,0.20
2018-08-19T18:14:10.000Z,0.33
2018-08-19T18:16:37.427Z,0.40
2018-08-19T18:19:04.838Z,0.37
2018-08-19T18:21:36.159Z,0.30
2018-08-19T18:24:04.156Z,0.30
2018-08-19T18:26:31.654Z,0.30
2018-08-19T18:28:59.289Z,0.37
2018-08-19T18:31:26.861Z,0.37
2018-08-19T18:33:58.376Z,0.13
2018-08-19T18:36:27.038Z,0.30
2018-08-19T18:38:54.667Z,0.20
2018-08-19T18:41:27.929Z,0.10
2018-08-19T18:43:56.689Z,0.40
2018-08-19T18:46:24.433Z,0.20
2018-08-19T18:49:01.169Z,0.20
2018-08-19T18:51:29.635Z,0.30
2018-08-19T18:53:57.166Z,0.13
2018-08-19T18:56:25.368Z,0.20
2018-08-19T18:58:52.983Z,0.30
2018-08-19T19:01:20.446Z,0.20
2018-08-19T19:03:48.097Z,0.23
2018-08-19T19:06:15.760Z,0.27
2018-08-19T19:08:43.227Z,0.30
2018-08-19T19:11:10.660Z,0.10
2018-08-19T19:13:38.174Z,0.30
2018-08-19T19:16:05.722Z,0.30
2018-08-19T19:18:33.167Z,0.30
2018-08-19T19:21:02.557Z,0.23
2018-08-19T19:23:39.431Z,0.17
2018-08-19T19:26:07.709Z,0.20
2018-08-19T19:28:35.316Z,0.20
2018-08-19T19:31:17.241Z,0.20
2018-08-19T19:33:44.750Z,0.20
2018-08-19T19:36:18.619Z,0.40
2018-08-19T19:38:51.599Z,0.20
2018-08-19T19:41:24.983Z,0.27
2018-08-19T19:43:52.702Z,0.20
2018-08-19T19:46:20.276Z,0.30
2018-08-19T19:48:47.991Z,0.30
2018-08-19T19:51:15.524Z,0.30
2018-08-19T19:53:43.087Z,0.30
2018-08-19T19:56:11.896Z,0.20
2018-08-19T19:58:39.390Z,0.23
2018-08-19T20:01:06.947Z,0.20
2018-08-19T20:03:40.104Z,0.27
2018-08-19T20:06:07.639Z,0.20
2018-08-19T20:08:35.116Z,0.30
2018-08-19T20:11:02.621Z,0.10
2018-08-19T20:13:30.485Z,0.20
2018-08-19T20:15:57.921Z,0.23
2018-08-19T20:18:25.422Z,0.20
2018-08-19T20:20:53.169Z,0.30
2018-08-19T20:23:24.149Z,0.20
2018-08-19T20:25:52.134Z,0.20
2018-08-19T20:28:19.725Z,0.20
2018-08-19T20:30:47.201Z,0.30
2018-08-19T20:33:20.341Z,0.20
2018-08-19T20:35:48.067Z,0.30
2018-08-19T20:38:15.578Z,0.20
2018-08-19T20:40:43.179Z,0.17
2018-08-19T20:43:13.539Z,0.20
2018-08-19T20:45:41.228Z,0.10
2018-08-19T20:48:09.162Z,0.20
2018-08-19T20:50:37.365Z,0.30
2018-08-19T20:53:04.889Z,0.30
2018-08-19T20:55:32.321Z,0.30
2018-08-19T20:58:00.107Z,0.10
2018-08-19T21:00:27.528Z,0.40
2018-08-19T21:02:55.033Z,0.20
2018-08-19T21:05:22.802Z,0.30
2018-08-19T21:07:51.068Z,0.30
2018-08-19T21:10:18.489Z,0.30
2018-08-19T21:12:46.185Z,0.30
2018-08-19T21:15:14.526Z,0.27
2018-08-19T21:17:42.022Z,0.20
2018-08-19T21:20:09.657Z,0.20
2018-08-19T21:22:37.144Z,0.20
2018-08-19T21:25:04.812Z,0.30
2018-08-19T21:27:32.416Z,0.40
2018-08-19T21:29:59.862Z,0.27
2018-08-19T21:32:27.340Z,0.20
2018-08-19T21:34:54.975Z,0.20
2018-08-19T21:37:27.030Z,0.30
2018-08-19T21:39:54.489Z,0.23
2018-08-19T21:42:22.218Z,0.10
2018-08-19T21:44:49.727Z,0.30
2018-08-19T21:47:17.305Z,0.33
2018-08-19T21:49:49.669Z,0.20
2018-08-19T21:52:17.129Z,0.30
2018-08-19T21:54:44.552Z,0.20
2018-08-19T21:57:12.237Z,0.20
2018-08-19T21:59:39.712Z,0.30
2018-08-19T22:02:11.707Z,0.20
2018-08-19T22:04:39.378Z,0.30
2018-08-19T22:07:06.965Z,0.20
2018-08-19T22:09:35.747Z,0.10
2018-08-19T22:12:03.690Z,0.20
2018-08-19T22:14:31.826Z,0.33
2018-08-19T22:17:04.888Z,0.30
2018-08-19T22:19:32.425Z,0.20
2018-08-19T22:21:59.975Z,0.30
2018-08-19T22:24:27.542Z,0.20
2018-08-19T22:26:58.253Z,0.33
2018-08-19T22:29:25.708Z,0.40
2018-08-19T22:31:53.376Z,0.20
2018-08-19T22:34:21.008Z,0.20
2018-08-19T22:36:48.495Z,0.40
2018-08-19T22:39:17.300Z,0.37
2018-08-19T22:41:47.374Z,0.40
2018-08-19T22:44:15.059Z,0.30
2018-08-19T22:46:42.550Z,0.30
2018-08-19T22:49:10.354Z,0.30
2018-08-19T22:51:37.900Z,0.30
2018-08-19T22:54:05.430Z,0.30
2018-08-19T22:56:33.204Z,0.27
2018-08-19T22:59:00.672Z,0.30
2018-08-19T23:01:33.916Z,0.30
2018-08-19T23:04:02.246Z,0.40
2018-08-19T23:06:30.379Z,0.30
2018-08-19T23:08:57.884Z,0.37
2018-08-19T23:11:32.440Z,0.50
2018-08-19T23:14:11.196Z,0.40
2018-08-19T23:16:38.790Z,0.60
2018-08-19T23:19:06.273Z,0.60
2018-08-19T23:21:33.759Z,0.53
2018-08-19T23:24:01.342Z,0.60
2018-08-19T23:26:28.784Z,0.60
2018-08-19T23:28:56.209Z,0.77
2018-08-19T23:31:23.951Z,0.60
2018-08-19T23:33:51.382Z,1.00
2018-08-19T23:36:18.889Z,0.70
2018-08-19T23:38:46.422Z,0.67
2018-08-19T23:41:13.910Z,0.80
2018-08-19T23:43:42.186Z,0.70
2018-08-19T23:46:09.858Z,0.80
2018-08-19T23:48:37.325Z,0.83
2018-08-19T23:51:05.563Z,0.87
2018-08-19T23:53:33.324Z,0.83
2018-08-19T23:56:00.823Z,0.90
2018-08-19T23:58:28.292Z,0.90
